Weather at Renmark Airport

Public forecast

Using degrees Celsius for public forecast. Weather courtesy of forecast.io.

Closest aviation weather report (METAR) to Renmark Airport

Closest report is Mildura Airport, 70.1 nm (129.9 km) E. Retrieved 2021/06/17 01:00 UTC (5 minutes ago):

YMIA 170100Z AUTO 27007KT 9999 // BKN016 BKN055 13/10 Q1013

Closest aviation forecast (TAF) to Renmark Airport

Closest forecast is Adelaide International Airport, 115.1 nm (213.1 km) WSW. Retrieved 2021/06/16 21:39 UTC (3 hours ago):

TAF YPAD 162004Z 1621/1800 27008KT 9999 -SHRA FEW014 SCT020 BKN040 FM170000 25012KT 9999 -SHRA SCT025 BKN050 FM171200 20008KT 9999 -SHRA SCT020 BKN040 INTER 1703/1712 4000 SHRA SCT010 BKN020